createdAt,value
2022-11-04T00:01:48.355Z,10.80
2022-11-04T00:04:19.588Z,16.43
2022-11-04T00:06:49.160Z,13.70
2022-11-04T00:09:21.241Z,11.30
2022-11-04T00:12:07.429Z,12.63
2022-11-04T00:14:39.044Z,11.80
2022-11-04T00:17:22.972Z,16.17
2022-11-04T00:20:10.077Z,15.00
2022-11-04T00:22:56.837Z,12.40
2022-11-04T00:25:44.355Z,15.13
2022-11-04T00:28:31.855Z,11.30
2022-11-04T00:31:22.630Z,15.80
2022-11-04T00:33:51.633Z,14.30
2022-11-04T00:36:21.847Z,11.30
2022-11-04T00:38:50.181Z,11.83
2022-11-04T00:41:30.984Z,8.20
2022-11-04T00:44:01.698Z,11.53
2022-11-04T00:46:31.510Z,12.70
2022-11-04T00:49:01.482Z,14.47
2022-11-04T00:51:29.957Z,14.93
2022-11-04T00:53:59.801Z,15.70
2022-11-04T00:56:29.245Z,12.77
2022-11-04T00:58:57.362Z,17.03
2022-11-04T01:01:28.045Z,17.00
2022-11-04T01:03:57.348Z,15.10
2022-11-04T01:06:28.349Z,16.30
2022-11-04T01:08:57.746Z,10.20
2022-11-04T01:11:26.219Z,12.40
2022-11-04T01:13:56.392Z,14.33
2022-11-04T01:16:25.929Z,18.97
2022-11-04T01:18:54.048Z,16.30
2022-11-04T01:21:22.490Z,17.30
2022-11-04T01:23:51.370Z,15.70
2022-11-04T01:26:23.474Z,13.60
2022-11-04T01:28:54.969Z,14.40
2022-11-04T01:31:26.701Z,14.50
2022-11-04T01:33:56.635Z,11.10
2022-11-04T01:36:25.830Z,10.70
2022-11-04T01:38:56.102Z,12.30
2022-11-04T01:41:26.684Z,10.30
2022-11-04T01:43:56.669Z,20.60
2022-11-04T01:46:34.026Z,16.07
2022-11-04T01:49:08.233Z,16.17
2022-11-04T01:51:40.357Z,17.77
2022-11-04T01:54:11.200Z,17.20
2022-11-04T01:56:41.224Z,18.43
2022-11-04T01:59:22.158Z,16.77
2022-11-04T02:01:52.267Z,15.53
2022-11-04T02:04:27.279Z,14.73
2022-11-04T02:06:58.294Z,15.20
2022-11-04T02:09:32.096Z,14.83
2022-11-04T02:12:18.203Z,14.50
2022-11-04T02:14:48.200Z,20.03
2022-11-04T02:17:34.656Z,12.67
2022-11-04T02:20:30.519Z,19.53
2022-11-04T02:23:26.191Z,21.27
2022-11-04T02:26:15.035Z,16.17
2022-11-04T02:29:16.653Z,21.90
2022-11-04T02:31:55.250Z,20.37
2022-11-04T02:34:32.629Z,18.07
2022-11-04T02:37:11.198Z,16.20
2022-11-04T02:39:52.368Z,20.60
2022-11-04T02:42:31.695Z,17.67
2022-11-04T02:45:12.257Z,18.97
2022-11-04T02:47:45.551Z,17.90
2022-11-04T02:50:18.786Z,18.30
2022-11-04T02:52:55.971Z,15.10
2022-11-04T02:55:27.968Z,11.27
2022-11-04T02:58:00.586Z,21.87
2022-11-04T03:00:30.962Z,18.33
2022-11-04T03:03:03.862Z,21.20
2022-11-04T03:05:37.760Z,16.67
2022-11-04T03:08:10.800Z,22.90
2022-11-04T03:10:44.452Z,15.03
2022-11-04T03:13:15.786Z,21.97
2022-11-04T03:15:50.261Z,19.97
2022-11-04T03:18:28.296Z,16.83
2022-11-04T03:21:00.043Z,13.40
2022-11-04T03:23:29.247Z,15.20
2022-11-04T03:26:04.190Z,22.57
2022-11-04T03:28:43.819Z,21.30
2022-11-04T03:31:20.547Z,22.13
2022-11-04T03:33:52.317Z,31.83
2022-11-04T03:36:23.393Z,23.93
2022-11-04T03:38:53.988Z,19.97
2022-11-04T03:41:36.621Z,21.53
2022-11-04T03:44:05.657Z,20.17
2022-11-04T03:46:36.447Z,21.30
2022-11-04T03:49:08.969Z,22.50
2022-11-04T03:51:37.527Z,21.90
2022-11-04T03:54:06.642Z,26.53
2022-11-04T03:57:02.210Z,25.70
2022-11-04T03:59:51.695Z,27.40
2022-11-04T04:02:24.663Z,21.40
2022-11-04T04:05:00.451Z,29.07
2022-11-04T04:07:34.859Z,22.87
2022-11-04T04:10:29.614Z,27.40
2022-11-04T04:13:01.895Z,23.97
2022-11-04T04:15:37.883Z,24.13
2022-11-04T04:18:12.631Z,24.43
2022-11-04T04:20:47.328Z,25.87
2022-11-04T04:23:37.187Z,30.60
2022-11-04T04:26:26.756Z,24.10
2022-11-04T04:28:56.896Z,26.63
2022-11-04T04:31:44.398Z,23.37
2022-11-04T04:34:13.180Z,28.83
2022-11-04T04:36:47.693Z,23.70
2022-11-04T04:39:40.637Z,20.00
2022-11-04T04:42:27.203Z,24.47
2022-11-04T04:45:02.067Z,14.63
2022-11-04T04:47:45.213Z,24.33
2022-11-04T04:50:15.652Z,29.40
2022-11-04T04:52:49.847Z,21.87
2022-11-04T04:55:19.386Z,23.77
2022-11-04T04:57:47.528Z,21.63
2022-11-04T05:00:18.240Z,24.07
2022-11-04T05:02:47.113Z,20.37
2022-11-04T05:05:17.263Z,21.53
2022-11-04T05:07:47.065Z,16.37
2022-11-04T05:10:17.500Z,15.93
2022-11-04T05:13:03.695Z,24.33
2022-11-04T05:15:33.801Z,20.13
2022-11-04T05:18:03.618Z,23.83
2022-11-04T05:20:34.377Z,26.97
2022-11-04T05:23:04.078Z,26.97
2022-11-04T05:25:32.844Z,29.27
2022-11-04T05:28:05.375Z,20.70
2022-11-04T05:30:34.074Z,21.30
2022-11-04T05:33:04.915Z,20.30
2022-11-04T05:35:34.228Z,29.17
2022-11-04T05:38:04.534Z,23.97
2022-11-04T05:40:32.749Z,24.17
2022-11-04T05:43:02.224Z,24.80
2022-11-04T05:45:31.144Z,29.67
2022-11-04T05:48:00.948Z,30.37
2022-11-04T05:50:30.135Z,23.90
2022-11-04T05:52:59.028Z,24.93
2022-11-04T05:55:30.811Z,24.30
2022-11-04T05:57:59.944Z,28.57
2022-11-04T06:00:28.775Z,26.87
2022-11-04T06:02:58.656Z,29.47
2022-11-04T06:05:28.188Z,25.43
2022-11-04T06:07:57.979Z,24.93
2022-11-04T06:10:27.002Z,30.23
2022-11-04T06:12:56.984Z,26.50
2022-11-04T06:15:25.603Z,28.03
2022-11-04T06:17:53.862Z,25.70
2022-11-04T06:20:25.454Z,34.83
2022-11-04T06:22:54.074Z,20.97
2022-11-04T06:25:22.412Z,23.37
2022-11-04T06:27:50.500Z,25.00
2022-11-04T06:30:20.549Z,43.00
2022-11-04T06:32:49.469Z,56.73
2022-11-04T06:35:18.254Z,37.43
2022-11-04T06:37:49.209Z,30.13
2022-11-04T06:40:17.740Z,30.67
2022-11-04T06:42:46.774Z,25.33
2022-11-04T06:45:14.823Z,28.13
2022-11-04T06:47:44.390Z,37.00
2022-11-04T06:50:15.721Z,39.67
2022-11-04T06:52:44.333Z,35.20
2022-11-04T06:55:12.574Z,30.43
2022-11-04T06:57:40.913Z,33.30
2022-11-04T07:00:10.399Z,30.30
2022-11-04T07:02:39.349Z,24.07
2022-11-04T07:05:10.414Z,30.67
2022-11-04T07:07:38.903Z,28.30
2022-11-04T07:10:08.317Z,25.77
2022-11-04T07:12:38.389Z,28.03
2022-11-04T07:15:07.353Z,31.47
2022-11-04T07:17:39.675Z,24.13
2022-11-04T07:20:13.543Z,24.80
2022-11-04T07:22:41.880Z,29.20
2022-11-04T07:25:11.122Z,27.13
2022-11-04T07:27:40.400Z,30.53
2022-11-04T07:30:10.223Z,27.83
2022-11-04T07:32:38.278Z,29.77
2022-11-04T07:35:09.091Z,26.57
2022-11-04T07:37:36.972Z,25.13
2022-11-04T07:40:06.067Z,28.87
2022-11-04T07:42:36.376Z,27.27
2022-11-04T07:45:04.812Z,26.47
2022-11-04T07:47:33.227Z,31.60
2022-11-04T07:50:10.587Z,27.23
2022-11-04T07:52:40.846Z,30.50
2022-11-04T07:55:14.316Z,28.10
2022-11-04T07:57:42.888Z,21.87
2022-11-04T08:00:13.448Z,27.77
2022-11-04T08:02:42.314Z,27.20
2022-11-04T08:05:10.805Z,28.57
2022-11-04T08:07:41.228Z,23.07
2022-11-04T08:10:11.250Z,26.03
2022-11-04T08:12:39.456Z,30.23
2022-11-04T08:15:09.153Z,29.17
2022-11-04T08:17:37.797Z,30.33
2022-11-04T08:20:08.958Z,31.27
2022-11-04T08:22:38.107Z,32.33
2022-11-04T08:25:13.690Z,31.80
2022-11-04T08:27:43.420Z,27.23
2022-11-04T08:30:12.486Z,34.73
2022-11-04T08:32:40.536Z,29.50
2022-11-04T08:35:12.327Z,25.53
2022-11-04T08:37:41.990Z,28.87
2022-11-04T08:40:12.659Z,31.20
2022-11-04T08:42:40.840Z,26.00
2022-11-04T08:45:11.079Z,26.70
2022-11-04T08:47:42.739Z,26.27
2022-11-04T08:50:11.651Z,26.53
2022-11-04T08:52:40.352Z,26.40
2022-11-04T08:55:10.640Z,25.77
2022-11-04T08:57:40.258Z,29.07
2022-11-04T09:00:09.858Z,27.40
2022-11-04T09:02:39.352Z,28.23
2022-11-04T09:05:08.958Z,28.47
2022-11-04T09:07:39.038Z,28.43
2022-11-04T09:10:08.414Z,28.70
2022-11-04T09:12:36.609Z,30.20
2022-11-04T09:15:07.521Z,29.23
2022-11-04T09:17:36.067Z,27.73
2022-11-04T09:20:05.469Z,32.20
2022-11-04T09:22:33.841Z,28.13
2022-11-04T09:25:02.890Z,28.03
2022-11-04T09:27:32.114Z,23.70
2022-11-04T09:30:00.097Z,25.47
2022-11-04T09:32:29.896Z,27.53
2022-11-04T09:34:58.478Z,31.87
2022-11-04T09:37:26.980Z,19.87
2022-11-04T09:39:55.730Z,27.10
2022-11-04T09:42:44.947Z,23.00
2022-11-04T09:45:21.495Z,24.20
2022-11-04T09:48:02.534Z,22.73
2022-11-04T09:50:37.510Z,22.37
2022-11-04T09:53:10.578Z,23.97
2022-11-04T09:55:49.180Z,25.97
2022-11-04T09:58:17.836Z,20.63
2022-11-04T10:00:56.714Z,23.37
2022-11-04T10:03:55.056Z,15.50
2022-11-04T10:06:38.279Z,23.03
2022-11-04T10:09:22.249Z,21.37
2022-11-04T10:12:03.468Z,19.77
2022-11-04T10:14:49.989Z,25.17
2022-11-04T10:17:31.871Z,24.80
2022-11-04T10:20:20.848Z,22.63
2022-11-04T10:22:59.459Z,22.53
2022-11-04T10:25:32.178Z,15.60
2022-11-04T10:28:01.459Z,20.07
2022-11-04T10:30:32.193Z,22.23
2022-11-04T10:33:07.680Z,24.40
2022-11-04T10:35:42.604Z,18.53
2022-11-04T10:38:23.161Z,18.37
2022-11-04T10:40:53.808Z,21.57
2022-11-04T10:43:31.229Z,17.20
2022-11-04T10:46:13.481Z,16.77
2022-11-04T10:48:51.371Z,24.63
2022-11-04T10:51:22.471Z,19.20
2022-11-04T10:53:56.878Z,21.63
2022-11-04T10:56:37.290Z,16.37
2022-11-04T10:59:20.889Z,26.17
2022-11-04T11:01:55.040Z,19.73
2022-11-04T11:04:29.707Z,19.00
2022-11-04T11:07:01.804Z,21.70
2022-11-04T11:09:31.823Z,21.40
2022-11-04T11:12:23.304Z,21.73
2022-11-04T11:14:54.174Z,21.57
2022-11-04T11:17:25.260Z,16.80
2022-11-04T11:19:59.688Z,19.83
2022-11-04T11:22:38.079Z,20.27
2022-11-04T11:25:29.766Z,18.23
2022-11-04T11:28:01.019Z,20.13
2022-11-04T11:30:34.030Z,19.87
2022-11-04T11:33:05.117Z,17.07
2022-11-04T11:35:41.625Z,17.87
2022-11-04T11:38:21.157Z,16.53
2022-11-04T11:41:22.816Z,17.43
2022-11-04T11:43:48.445Z,19.40
2022-11-04T11:46:24.465Z,24.40
2022-11-04T11:48:53.927Z,14.07
2022-11-04T11:51:31.716Z,11.83
2022-11-04T11:54:16.798Z,26.27
2022-11-04T12:02:41.249Z,18.37
2022-11-04T12:11:16.537Z,23.40
2022-11-04T12:13:51.089Z,22.87
2022-11-04T12:16:34.679Z,17.57
2022-11-04T12:19:27.162Z,19.60
2022-11-04T12:22:03.794Z,17.97
2022-11-04T12:24:43.334Z,25.97
2022-11-04T12:27:22.960Z,18.00
2022-11-04T12:30:10.576Z,18.20
2022-11-04T12:32:53.533Z,17.53
2022-11-04T12:35:38.414Z,15.43
2022-11-04T12:38:34.001Z,22.43
2022-11-04T12:44:10.997Z,20.37
2022-11-04T12:46:47.568Z,18.43
2022-11-04T12:49:37.322Z,21.23
2022-11-04T12:52:15.525Z,16.03
2022-11-04T12:55:06.134Z,15.90
2022-11-04T12:57:48.028Z,19.17
2022-11-04T13:00:22.050Z,16.07
2022-11-04T13:02:53.649Z,18.23
2022-11-04T13:05:38.220Z,16.33
2022-11-04T13:08:14.814Z,17.67
2022-11-04T13:10:49.875Z,15.27
2022-11-04T13:13:23.021Z,17.40
2022-11-04T13:15:59.237Z,17.10
2022-11-04T13:18:32.298Z,15.17
2022-11-04T13:21:05.773Z,12.97
2022-11-04T13:23:40.822Z,17.57
2022-11-04T13:26:14.177Z,18.07
2022-11-04T13:28:44.505Z,19.27
2022-11-04T13:31:24.142Z,18.87
2022-11-04T13:33:57.113Z,20.27
2022-11-04T13:36:34.643Z,20.07
2022-11-04T13:39:10.044Z,16.20
2022-11-04T13:41:56.818Z,23.87
2022-11-04T13:44:29.805Z,17.80
2022-11-04T13:47:03.908Z,21.37
2022-11-04T13:49:34.559Z,24.73
2022-11-04T13:52:10.480Z,21.57
2022-11-04T13:54:43.085Z,20.83
2022-11-04T13:57:16.098Z,18.83
2022-11-04T14:00:06.383Z,18.33
2022-11-04T14:02:51.172Z,17.17
2022-11-04T14:06:08.546Z,16.93
2022-11-04T14:08:37.363Z,21.73
2022-11-04T14:11:12.619Z,21.97
2022-11-04T14:13:48.443Z,23.20
2022-11-04T14:16:45.286Z,15.80
2022-11-04T14:19:56.746Z,19.87
2022-11-04T14:22:35.541Z,13.63
2022-11-04T14:25:24.945Z,23.90
2022-11-04T14:27:55.614Z,17.13
2022-11-04T14:30:46.988Z,21.67
2022-11-04T14:33:26.771Z,23.23
2022-11-04T14:35:56.652Z,21.73
2022-11-04T14:38:31.066Z,15.97
2022-11-04T14:41:23.863Z,18.93
2022-11-04T14:43:55.915Z,13.20
2022-11-04T14:46:28.116Z,18.53
2022-11-04T14:48:58.098Z,15.40
2022-11-04T14:51:30.403Z,19.70
2022-11-04T14:54:09.452Z,17.03
2022-11-04T14:56:38.835Z,17.50
2022-11-04T14:59:08.822Z,20.03
2022-11-04T15:01:40.092Z,17.07
2022-11-04T15:04:28.724Z,25.57
2022-11-04T15:06:58.664Z,16.50
2022-11-04T15:09:31.059Z,19.93
2022-11-04T15:12:25.179Z,22.33
2022-11-04T15:14:53.857Z,18.40
2022-11-04T15:17:25.075Z,29.23
2022-11-04T15:19:56.676Z,32.27
2022-11-04T15:22:25.456Z,24.67
2022-11-04T15:24:55.064Z,22.70
2022-11-04T15:27:29.986Z,21.47
2022-11-04T15:30:00.918Z,20.07
2022-11-04T15:32:29.074Z,20.27
2022-11-04T15:34:59.945Z,21.50
2022-11-04T15:37:29.666Z,25.33
2022-11-04T15:40:00.429Z,20.83
2022-11-04T15:42:45.165Z,26.43
2022-11-04T15:45:32.078Z,25.43
2022-11-04T15:48:25.801Z,23.80
2022-11-04T15:51:10.424Z,22.63
2022-11-04T15:53:50.048Z,26.83
2022-11-04T15:56:26.133Z,16.90
2022-11-04T15:58:55.866Z,15.53
2022-11-04T16:01:24.142Z,17.23
2022-11-04T16:03:55.174Z,17.97
2022-11-04T16:06:38.673Z,17.93
2022-11-04T16:09:21.294Z,17.90
2022-11-04T16:12:27.189Z,15.83
2022-11-04T16:14:56.439Z,16.03
2022-11-04T16:17:26.721Z,23.03
2022-11-04T16:19:57.339Z,20.03
2022-11-04T16:22:30.010Z,15.93
2022-11-04T16:24:59.589Z,15.60
2022-11-04T16:27:32.173Z,17.67
2022-11-04T16:30:08.205Z,22.47
2022-11-04T16:32:42.742Z,19.83
2022-11-04T16:35:18.372Z,20.37
2022-11-04T16:37:46.543Z,19.07
2022-11-04T16:40:15.927Z,22.97
2022-11-04T16:42:46.873Z,13.67
2022-11-04T16:45:30.290Z,23.03
2022-11-04T16:47:58.972Z,19.83
2022-11-04T16:50:28.117Z,19.17
2022-11-04T16:52:56.613Z,24.57
2022-11-04T16:55:26.393Z,17.43
2022-11-04T16:58:01.736Z,18.37
2022-11-04T17:00:33.392Z,25.10
2022-11-04T17:03:02.489Z,22.30
2022-11-04T17:05:31.826Z,16.47
2022-11-04T17:08:04.820Z,19.53
2022-11-04T17:10:38.291Z,20.57
2022-11-04T17:13:09.346Z,18.33
2022-11-04T17:15:37.946Z,37.13
2022-11-04T17:18:06.517Z,21.27
2022-11-04T17:20:34.918Z,19.70
2022-11-04T17:23:03.383Z,16.77
2022-11-04T17:25:31.959Z,17.87
2022-11-04T17:28:00.116Z,19.27
2022-11-04T17:30:29.803Z,18.87
2022-11-04T17:32:58.351Z,21.30
2022-11-04T17:35:26.505Z,19.27
2022-11-04T17:37:56.129Z,16.10
2022-11-04T17:40:25.033Z,21.47
2022-11-04T17:43:12.568Z,14.97
2022-11-04T17:45:42.907Z,20.90
2022-11-04T17:48:14.475Z,19.47
2022-11-04T17:50:43.472Z,21.50
2022-11-04T17:53:11.814Z,19.50
2022-11-04T17:55:42.062Z,17.50
2022-11-04T17:58:12.320Z,21.80
2022-11-04T18:00:40.888Z,13.93
2022-11-04T18:03:12.724Z,21.20
2022-11-04T18:05:41.558Z,18.63
2022-11-04T18:08:09.599Z,17.10
2022-11-04T18:10:38.351Z,21.60
2022-11-04T18:13:08.637Z,15.77
2022-11-04T18:15:37.419Z,17.13
2022-11-04T18:18:05.601Z,17.43
2022-11-04T18:20:47.391Z,16.70
2022-11-04T18:23:15.664Z,11.53
2022-11-04T18:25:49.607Z,18.23
2022-11-04T18:28:19.000Z,20.67
2022-11-04T18:30:46.951Z,17.27
2022-11-04T18:33:15.581Z,13.83
2022-11-04T18:35:45.536Z,15.57
2022-11-04T18:38:13.408Z,18.23
2022-11-04T18:40:41.473Z,18.17
2022-11-04T18:43:10.977Z,19.40
2022-11-04T18:45:39.669Z,21.50
2022-11-04T18:48:08.752Z,14.13
2022-11-04T18:50:37.190Z,11.57
2022-11-04T18:53:07.898Z,18.73
2022-11-04T18:55:36.734Z,16.53
2022-11-04T18:58:05.196Z,19.23
2022-11-04T19:00:33.591Z,19.00
2022-11-04T19:03:04.124Z,22.43
2022-11-04T19:05:32.208Z,13.37
2022-11-04T19:08:00.964Z,17.50
2022-11-04T19:10:30.507Z,13.73
2022-11-04T19:13:15.846Z,19.90
2022-11-04T19:15:44.288Z,16.77
2022-11-04T19:18:12.440Z,16.27
2022-11-04T19:20:40.446Z,20.77
2022-11-04T19:23:08.755Z,20.87
2022-11-04T19:25:42.533Z,18.20
2022-11-04T19:28:34.530Z,16.37
2022-11-04T19:31:02.435Z,18.20
2022-11-04T19:33:31.574Z,15.47
2022-11-04T19:36:00.095Z,12.43
2022-11-04T19:38:28.320Z,17.23
2022-11-04T19:41:05.847Z,20.43
2022-11-04T19:43:33.163Z,14.07
2022-11-04T19:46:04.938Z,19.27
2022-11-04T19:48:37.005Z,27.57
2022-11-04T19:51:05.152Z,17.17
2022-11-04T19:53:33.252Z,18.73
2022-11-04T19:56:02.767Z,16.30
2022-11-04T19:58:30.753Z,15.70
2022-11-04T20:01:04.806Z,21.07
2022-11-04T20:03:32.849Z,20.47
2022-11-04T20:06:01.629Z,21.13
2022-11-04T20:08:29.892Z,21.50
2022-11-04T20:11:02.763Z,20.27
2022-11-04T20:13:49.115Z,20.90
2022-11-04T20:16:19.559Z,18.53
2022-11-04T20:18:50.852Z,19.27
2022-11-04T20:21:21.120Z,20.20
2022-11-04T20:23:50.095Z,19.20
2022-11-04T20:26:20.996Z,28.40
2022-11-04T20:28:50.901Z,20.33
2022-11-04T20:31:20.953Z,19.77
2022-11-04T20:33:50.042Z,21.27
2022-11-04T20:36:20.671Z,22.33
2022-11-04T20:38:48.799Z,14.97
2022-11-04T20:41:19.989Z,25.23
2022-11-04T20:43:50.419Z,21.23
2022-11-04T20:46:20.479Z,20.27
2022-11-04T20:48:50.438Z,20.03
2022-11-04T20:51:21.892Z,14.90
2022-11-04T20:53:56.045Z,20.70
2022-11-04T20:56:26.326Z,20.17
2022-11-04T20:58:59.470Z,11.33
2022-11-04T21:01:35.688Z,25.60
2022-11-04T21:04:07.715Z,23.13
2022-11-04T21:06:39.085Z,14.43
2022-11-04T21:09:09.937Z,26.53
2022-11-04T21:11:42.416Z,24.87
2022-11-04T21:14:14.074Z,19.27
2022-11-04T21:16:42.143Z,23.43
2022-11-04T21:19:13.471Z,26.73
2022-11-04T21:21:43.280Z,20.80
2022-11-04T21:24:14.636Z,19.27
2022-11-04T21:26:43.929Z,21.47
2022-11-04T21:29:15.540Z,21.77
2022-11-04T21:31:44.374Z,22.37
2022-11-04T21:34:13.398Z,26.93
2022-11-04T21:36:43.204Z,27.90
2022-11-04T21:39:13.155Z,19.37
2022-11-04T21:41:41.254Z,24.50
2022-11-04T21:44:11.974Z,22.90
2022-11-04T21:46:42.714Z,22.60
2022-11-04T21:49:14.203Z,23.03
2022-11-04T21:51:42.862Z,24.70
2022-11-04T21:54:12.698Z,23.03
2022-11-04T21:56:41.149Z,21.77
2022-11-04T21:59:17.906Z,24.87
2022-11-04T22:01:48.283Z,21.43
2022-11-04T22:04:16.754Z,23.43
2022-11-04T22:06:45.617Z,24.03
2022-11-04T22:09:14.604Z,26.47
2022-11-04T22:11:44.197Z,21.07
2022-11-04T22:14:14.098Z,23.33
2022-11-04T22:16:42.361Z,25.97
2022-11-04T22:19:14.770Z,23.37
2022-11-04T22:21:45.033Z,20.53
2022-11-04T22:24:15.871Z,23.47
2022-11-04T22:26:44.291Z,24.93
2022-11-04T22:29:12.770Z,26.23
2022-11-04T22:31:43.339Z,19.87
2022-11-04T22:34:17.463Z,25.50
2022-11-04T22:36:46.088Z,21.83
2022-11-04T22:39:16.684Z,18.83
2022-11-04T22:41:46.697Z,22.87
2022-11-04T22:44:15.192Z,20.80
2022-11-04T22:46:43.698Z,21.87
2022-11-04T22:49:15.140Z,26.27
2022-11-04T22:51:43.189Z,22.43
2022-11-04T22:54:12.613Z,23.90
2022-11-04T22:56:40.917Z,27.80
2022-11-04T22:59:09.143Z,26.87
2022-11-04T23:01:37.945Z,25.77
2022-11-04T23:04:06.754Z,24.17
2022-11-04T23:06:36.927Z,22.93
2022-11-04T23:09:06.110Z,23.93
2022-11-04T23:11:52.218Z,23.47
2022-11-04T23:14:40.050Z,26.63
2022-11-04T23:17:33.889Z,28.53
2022-11-04T23:20:02.987Z,24.87
2022-11-04T23:22:50.599Z,23.70
2022-11-04T23:25:19.287Z,24.30
2022-11-04T23:28:06.738Z,26.00
2022-11-04T23:30:37.196Z,27.67
2022-11-04T23:33:07.346Z,23.83
2022-11-04T23:35:55.605Z,27.83
2022-11-04T23:38:26.167Z,25.63
2022-11-04T23:41:15.654Z,28.40
2022-11-04T23:43:44.379Z,27.50
2022-11-04T23:46:29.828Z,28.17
2022-11-04T23:49:15.552Z,32.30
2022-11-04T23:52:01.364Z,32.10
2022-11-04T23:54:48.836Z,32.70
2022-11-04T23:57:36.219Z,25.60
